sensor_id;sensor_type;location;lat;lon;timestamp;P1;durP1;ratioP1;P2;durP2;ratioP2
71715;SDS011;59568;52.128;5.434;2023-03-21T00:00:32;12.68;;;7.85;;
71715;SDS011;59568;52.128;5.434;2023-03-21T00:02:59;14.82;;;8.25;;
71715;SDS011;59568;52.128;5.434;2023-03-21T00:05:25;15.37;;;8.40;;
71715;SDS011;59568;52.128;5.434;2023-03-21T00:07:52;12.20;;;8.38;;
71715;SDS011;59568;52.128;5.434;2023-03-21T00:10:19;12.52;;;7.90;;
71715;SDS011;59568;52.128;5.434;2023-03-21T00:13:04;13.80;;;8.15;;
71715;SDS011;59568;52.128;5.434;2023-03-21T00:15:31;16.45;;;8.65;;
71715;SDS011;59568;52.128;5.434;2023-03-21T00:18:16;13.73;;;8.33;;
71715;SDS011;59568;52.128;5.434;2023-03-21T00:20:42;12.85;;;8.38;;
71715;SDS011;59568;52.128;5.434;2023-03-21T00:23:12;12.18;;;8.10;;
71715;SDS011;59568;52.128;5.434;2023-03-21T00:25:39;13.60;;;7.38;;
71715;SDS011;59568;52.128;5.434;2023-03-21T00:28:05;12.95;;;8.02;;
71715;SDS011;59568;52.128;5.434;2023-03-21T00:30:34;13.70;;;8.07;;
71715;SDS011;59568;52.128;5.434;2023-03-21T00:33:01;13.18;;;7.93;;
71715;SDS011;59568;52.128;5.434;2023-03-21T00:35:45;13.32;;;7.85;;
71715;SDS011;59568;52.128;5.434;2023-03-21T00:38:31;13.93;;;7.90;;
71715;SDS011;59568;52.128;5.434;2023-03-21T00:40:57;12.35;;;8.27;;
71715;SDS011;59568;52.128;5.434;2023-03-21T00:43:32;12.37;;;7.20;;
71715;SDS011;59568;52.128;5.434;2023-03-21T00:45:59;10.85;;;6.70;;
71715;SDS011;59568;52.128;5.434;2023-03-21T00:48:26;10.07;;;6.65;;
71715;SDS011;59568;52.128;5.434;2023-03-21T00:50:54;10.65;;;6.43;;
71715;SDS011;59568;52.128;5.434;2023-03-21T00:53:22;10.45;;;6.60;;
71715;SDS011;59568;52.128;5.434;2023-03-21T00:55:50;12.07;;;6.30;;
71715;SDS011;59568;52.128;5.434;2023-03-21T00:58:17;11.85;;;5.93;;
71715;SDS011;59568;52.128;5.434;2023-03-21T01:00:44;10.20;;;6.57;;
71715;SDS011;59568;52.128;5.434;2023-03-21T01:03:12;11.70;;;6.85;;
71715;SDS011;59568;52.128;5.434;2023-03-21T01:05:50;11.45;;;7.47;;
71715;SDS011;59568;52.128;5.434;2023-03-21T01:08:34;12.43;;;7.70;;
71715;SDS011;59568;52.128;5.434;2023-03-21T01:11:18;13.25;;;7.22;;
71715;SDS011;59568;52.128;5.434;2023-03-21T01:13:46;13.50;;;8.27;;
71715;SDS011;59568;52.128;5.434;2023-03-21T01:16:25;12.30;;;7.78;;
71715;SDS011;59568;52.128;5.434;2023-03-21T01:18:52;13.48;;;8.40;;
71715;SDS011;59568;52.128;5.434;2023-03-21T01:21:19;13.80;;;8.43;;
71715;SDS011;59568;52.128;5.434;2023-03-21T01:23:45;12.48;;;8.07;;
71715;SDS011;59568;52.128;5.434;2023-03-21T01:26:12;15.40;;;8.75;;
71715;SDS011;59568;52.128;5.434;2023-03-21T01:28:41;15.55;;;8.85;;
71715;SDS011;59568;52.128;5.434;2023-03-21T01:31:10;13.68;;;7.95;;
71715;SDS011;59568;52.128;5.434;2023-03-21T01:33:39;14.43;;;8.73;;
71715;SDS011;59568;52.128;5.434;2023-03-21T01:36:06;14.80;;;8.88;;
71715;SDS011;59568;52.128;5.434;2023-03-21T01:38:38;15.10;;;8.63;;
71715;SDS011;59568;52.128;5.434;2023-03-21T01:41:05;14.18;;;8.60;;
71715;SDS011;59568;52.128;5.434;2023-03-21T01:43:44;17.38;;;9.77;;
71715;SDS011;59568;52.128;5.434;2023-03-21T01:49:29;17.13;;;9.98;;
71715;SDS011;59568;52.128;5.434;2023-03-21T01:52:02;18.40;;;9.82;;
71715;SDS011;59568;52.128;5.434;2023-03-21T01:54:42;19.45;;;11.20;;
71715;SDS011;59568;52.128;5.434;2023-03-21T01:57:11;18.65;;;10.75;;
71715;SDS011;59568;52.128;5.434;2023-03-21T01:59:42;18.17;;;10.43;;
71715;SDS011;59568;52.128;5.434;2023-03-21T02:02:13;20.02;;;10.77;;
71715;SDS011;59568;52.128;5.434;2023-03-21T02:04:45;19.75;;;11.32;;
71715;SDS011;59568;52.128;5.434;2023-03-21T02:07:17;18.92;;;10.95;;
71715;SDS011;59568;52.128;5.434;2023-03-21T02:09:50;24.00;;;12.57;;
71715;SDS011;59568;52.128;5.434;2023-03-21T02:12:18;19.17;;;11.23;;
71715;SDS011;59568;52.128;5.434;2023-03-21T02:14:46;20.70;;;11.93;;
71715;SDS011;59568;52.128;5.434;2023-03-21T02:23:23;21.58;;;11.65;;
71715;SDS011;59568;52.128;5.434;2023-03-21T02:26:31;21.37;;;11.57;;
71715;SDS011;59568;52.128;5.434;2023-03-21T02:34:33;22.50;;;10.68;;
71715;SDS011;59568;52.128;5.434;2023-03-21T02:40:38;20.60;;;11.33;;
71715;SDS011;59568;52.128;5.434;2023-03-21T02:43:31;20.08;;;10.93;;
71715;SDS011;59568;52.128;5.434;2023-03-21T02:46:08;21.65;;;11.68;;
71715;SDS011;59568;52.128;5.434;2023-03-21T02:48:44;19.15;;;11.20;;
71715;SDS011;59568;52.128;5.434;2023-03-21T02:51:21;22.38;;;11.40;;
71715;SDS011;59568;52.128;5.434;2023-03-21T02:53:56;22.93;;;11.17;;
71715;SDS011;59568;52.128;5.434;2023-03-21T02:56:46;19.30;;;10.43;;
71715;SDS011;59568;52.128;5.434;2023-03-21T02:59:15;23.42;;;11.15;;
71715;SDS011;59568;52.128;5.434;2023-03-21T03:01:44;22.70;;;10.85;;
71715;SDS011;59568;52.128;5.434;2023-03-21T03:04:21;19.60;;;10.57;;
71715;SDS011;59568;52.128;5.434;2023-03-21T03:07:02;21.47;;;11.00;;
71715;SDS011;59568;52.128;5.434;2023-03-21T03:13:06;23.83;;;11.32;;
71715;SDS011;59568;52.128;5.434;2023-03-21T03:15:41;20.38;;;10.52;;
71715;SDS011;59568;52.128;5.434;2023-03-21T03:18:35;20.23;;;10.88;;
71715;SDS011;59568;52.128;5.434;2023-03-21T03:21:11;18.57;;;10.00;;
71715;SDS011;59568;52.128;5.434;2023-03-21T03:24:06;18.00;;;9.68;;
71715;SDS011;59568;52.128;5.434;2023-03-21T03:26:40;19.77;;;10.00;;
71715;SDS011;59568;52.128;5.434;2023-03-21T03:29:13;19.20;;;10.07;;
71715;SDS011;59568;52.128;5.434;2023-03-21T03:34:32;16.57;;;10.07;;
71715;SDS011;59568;52.128;5.434;2023-03-21T03:37:05;20.38;;;9.88;;
71715;SDS011;59568;52.128;5.434;2023-03-21T03:39:36;22.98;;;11.40;;
71715;SDS011;59568;52.128;5.434;2023-03-21T03:42:16;23.55;;;10.38;;
71715;SDS011;59568;52.128;5.434;2023-03-21T03:44:54;21.63;;;10.40;;
71715;SDS011;59568;52.128;5.434;2023-03-21T03:47:40;19.83;;;10.37;;
71715;SDS011;59568;52.128;5.434;2023-03-21T03:50:41;24.30;;;10.93;;
71715;SDS011;59568;52.128;5.434;2023-03-21T03:56:16;22.45;;;10.75;;
71715;SDS011;59568;52.128;5.434;2023-03-21T03:58:43;18.65;;;10.15;;
71715;SDS011;59568;52.128;5.434;2023-03-21T04:01:11;18.57;;;10.70;;
71715;SDS011;59568;52.128;5.434;2023-03-21T04:03:39;19.48;;;10.63;;
71715;SDS011;59568;52.128;5.434;2023-03-21T04:06:17;17.92;;;10.40;;
71715;SDS011;59568;52.128;5.434;2023-03-21T04:08:44;21.90;;;10.63;;
71715;SDS011;59568;52.128;5.434;2023-03-21T04:11:14;18.58;;;10.70;;
71715;SDS011;59568;52.128;5.434;2023-03-21T04:13:41;19.00;;;10.90;;
71715;SDS011;59568;52.128;5.434;2023-03-21T04:16:08;21.88;;;11.15;;
71715;SDS011;59568;52.128;5.434;2023-03-21T04:18:36;19.13;;;11.70;;
71715;SDS011;59568;52.128;5.434;2023-03-21T04:21:10;18.92;;;10.52;;
71715;SDS011;59568;52.128;5.434;2023-03-21T04:23:38;22.58;;;10.43;;
71715;SDS011;59568;52.128;5.434;2023-03-21T04:26:06;22.90;;;10.67;;
71715;SDS011;59568;52.128;5.434;2023-03-21T04:28:32;20.98;;;11.60;;
71715;SDS011;59568;52.128;5.434;2023-03-21T04:31:03;20.27;;;11.23;;
71715;SDS011;59568;52.128;5.434;2023-03-21T04:33:47;19.13;;;10.73;;
71715;SDS011;59568;52.128;5.434;2023-03-21T04:36:15;20.98;;;10.52;;
71715;SDS011;59568;52.128;5.434;2023-03-21T04:38:52;18.67;;;9.93;;
71715;SDS011;59568;52.128;5.434;2023-03-21T04:41:20;21.65;;;10.38;;
71715;SDS011;59568;52.128;5.434;2023-03-21T04:43:46;24.13;;;11.23;;
71715;SDS011;59568;52.128;5.434;2023-03-21T04:46:13;24.60;;;10.70;;
71715;SDS011;59568;52.128;5.434;2023-03-21T04:48:40;22.33;;;11.27;;
71715;SDS011;59568;52.128;5.434;2023-03-21T04:51:07;21.43;;;11.10;;
71715;SDS011;59568;52.128;5.434;2023-03-21T04:53:33;24.27;;;11.15;;
71715;SDS011;59568;52.128;5.434;2023-03-21T04:56:00;23.90;;;11.32;;
71715;SDS011;59568;52.128;5.434;2023-03-21T04:58:27;24.45;;;10.38;;
71715;SDS011;59568;52.128;5.434;2023-03-21T05:00:53;23.13;;;11.68;;
71715;SDS011;59568;52.128;5.434;2023-03-21T05:03:20;20.93;;;10.73;;
71715;SDS011;59568;52.128;5.434;2023-03-21T05:05:47;22.65;;;10.50;;
71715;SDS011;59568;52.128;5.434;2023-03-21T05:08:14;19.15;;;9.98;;
71715;SDS011;59568;52.128;5.434;2023-03-21T05:10:41;23.13;;;10.27;;
71715;SDS011;59568;52.128;5.434;2023-03-21T05:13:08;19.25;;;9.85;;
71715;SDS011;59568;52.128;5.434;2023-03-21T05:15:35;18.37;;;9.03;;
71715;SDS011;59568;52.128;5.434;2023-03-21T05:18:01;19.90;;;9.20;;
71715;SDS011;59568;52.128;5.434;2023-03-21T05:20:40;16.10;;;7.85;;
71715;SDS011;59568;52.128;5.434;2023-03-21T05:23:11;19.05;;;8.13;;
71715;SDS011;59568;52.128;5.434;2023-03-21T05:25:38;19.45;;;8.10;;
71715;SDS011;59568;52.128;5.434;2023-03-21T05:28:06;17.37;;;8.10;;
71715;SDS011;59568;52.128;5.434;2023-03-21T05:30:33;16.58;;;8.18;;
71715;SDS011;59568;52.128;5.434;2023-03-21T05:33:00;17.08;;;7.20;;
71715;SDS011;59568;52.128;5.434;2023-03-21T05:35:26;16.13;;;7.43;;
71715;SDS011;59568;52.128;5.434;2023-03-21T05:37:53;18.95;;;8.00;;
71715;SDS011;59568;52.128;5.434;2023-03-21T05:40:20;17.07;;;7.50;;
71715;SDS011;59568;52.128;5.434;2023-03-21T05:42:47;16.33;;;7.70;;
71715;SDS011;59568;52.128;5.434;2023-03-21T05:45:14;16.83;;;7.20;;
71715;SDS011;59568;52.128;5.434;2023-03-21T05:47:41;16.30;;;7.18;;
71715;SDS011;59568;52.128;5.434;2023-03-21T05:50:08;16.73;;;7.25;;
71715;SDS011;59568;52.128;5.434;2023-03-21T05:52:35;17.47;;;7.40;;
71715;SDS011;59568;52.128;5.434;2023-03-21T05:55:02;15.20;;;7.28;;
71715;SDS011;59568;52.128;5.434;2023-03-21T05:57:28;13.23;;;7.57;;
71715;SDS011;59568;52.128;5.434;2023-03-21T05:59:55;14.43;;;6.88;;
71715;SDS011;59568;52.128;5.434;2023-03-21T06:02:21;16.40;;;7.90;;
71715;SDS011;59568;52.128;5.434;2023-03-21T06:04:48;15.30;;;7.30;;
71715;SDS011;59568;52.128;5.434;2023-03-21T06:07:14;18.77;;;6.63;;
71715;SDS011;59568;52.128;5.434;2023-03-21T06:09:41;13.45;;;6.35;;
71715;SDS011;59568;52.128;5.434;2023-03-21T06:12:07;12.70;;;6.40;;
71715;SDS011;59568;52.128;5.434;2023-03-21T06:14:34;12.73;;;6.10;;
71715;SDS011;59568;52.128;5.434;2023-03-21T06:17:00;16.40;;;6.83;;
71715;SDS011;59568;52.128;5.434;2023-03-21T06:19:27;13.05;;;6.65;;
71715;SDS011;59568;52.128;5.434;2023-03-21T06:21:53;14.52;;;6.85;;
71715;SDS011;59568;52.128;5.434;2023-03-21T06:24:20;17.15;;;6.93;;
71715;SDS011;59568;52.128;5.434;2023-03-21T06:26:47;13.27;;;6.45;;
71715;SDS011;59568;52.128;5.434;2023-03-21T06:29:13;12.17;;;6.07;;
71715;SDS011;59568;52.128;5.434;2023-03-21T06:31:40;18.52;;;6.50;;
71715;SDS011;59568;52.128;5.434;2023-03-21T06:34:06;16.17;;;6.55;;
71715;SDS011;59568;52.128;5.434;2023-03-21T06:36:35;11.35;;;5.90;;
71715;SDS011;59568;52.128;5.434;2023-03-21T06:39:02;11.95;;;6.07;;
71715;SDS011;59568;52.128;5.434;2023-03-21T06:41:29;12.53;;;5.87;;
71715;SDS011;59568;52.128;5.434;2023-03-21T06:43:55;15.85;;;5.90;;
71715;SDS011;59568;52.128;5.434;2023-03-21T06:46:22;13.73;;;6.35;;
71715;SDS011;59568;52.128;5.434;2023-03-21T06:48:48;20.50;;;5.88;;
71715;SDS011;59568;52.128;5.434;2023-03-21T06:51:15;14.57;;;5.57;;
71715;SDS011;59568;52.128;5.434;2023-03-21T06:53:41;18.03;;;6.43;;
71715;SDS011;59568;52.128;5.434;2023-03-21T06:56:10;13.02;;;5.95;;
71715;SDS011;59568;52.128;5.434;2023-03-21T06:58:39;14.48;;;6.22;;
71715;SDS011;59568;52.128;5.434;2023-03-21T07:01:06;15.68;;;5.97;;
71715;SDS011;59568;52.128;5.434;2023-03-21T07:03:33;15.63;;;5.97;;
71715;SDS011;59568;52.128;5.434;2023-03-21T07:06:04;11.43;;;4.53;;
71715;SDS011;59568;52.128;5.434;2023-03-21T07:08:32;14.30;;;5.43;;
71715;SDS011;59568;52.128;5.434;2023-03-21T07:10:59;13.27;;;5.80;;
71715;SDS011;59568;52.128;5.434;2023-03-21T07:13:25;10.32;;;5.85;;
71715;SDS011;59568;52.128;5.434;2023-03-21T07:15:52;11.02;;;5.57;;
71715;SDS011;59568;52.128;5.434;2023-03-21T07:18:19;12.73;;;6.33;;
71715;SDS011;59568;52.128;5.434;2023-03-21T07:20:46;14.15;;;5.95;;
71715;SDS011;59568;52.128;5.434;2023-03-21T07:23:19;13.75;;;5.85;;
71715;SDS011;59568;52.128;5.434;2023-03-21T07:25:51;10.57;;;5.60;;
71715;SDS011;59568;52.128;5.434;2023-03-21T07:28:19;13.35;;;5.47;;
71715;SDS011;59568;52.128;5.434;2023-03-21T07:30:52;14.53;;;5.90;;
71715;SDS011;59568;52.128;5.434;2023-03-21T07:33:21;15.30;;;5.63;;
71715;SDS011;59568;52.128;5.434;2023-03-21T07:35:49;15.98;;;5.78;;
71715;SDS011;59568;52.128;5.434;2023-03-21T07:38:16;11.60;;;5.63;;
71715;SDS011;59568;52.128;5.434;2023-03-21T07:40:44;20.02;;;5.43;;
71715;SDS011;59568;52.128;5.434;2023-03-21T07:43:11;13.57;;;5.67;;
71715;SDS011;59568;52.128;5.434;2023-03-21T07:45:38;12.05;;;4.97;;
71715;SDS011;59568;52.128;5.434;2023-03-21T07:48:05;11.73;;;4.95;;
71715;SDS011;59568;52.128;5.434;2023-03-21T07:50:32;10.07;;;4.68;;
71715;SDS011;59568;52.128;5.434;2023-03-21T07:52:58;13.82;;;6.03;;
71715;SDS011;59568;52.128;5.434;2023-03-21T07:55:26;16.70;;;5.37;;
71715;SDS011;59568;52.128;5.434;2023-03-21T07:57:52;14.40;;;5.38;;
71715;SDS011;59568;52.128;5.434;2023-03-21T08:00:19;10.80;;;5.03;;
71715;SDS011;59568;52.128;5.434;2023-03-21T08:02:53;14.98;;;4.82;;
71715;SDS011;59568;52.128;5.434;2023-03-21T08:05:33;12.07;;;5.10;;
71715;SDS011;59568;52.128;5.434;2023-03-21T08:08:03;11.53;;;5.30;;
71715;SDS011;59568;52.128;5.434;2023-03-21T08:10:30;12.23;;;5.22;;
71715;SDS011;59568;52.128;5.434;2023-03-21T08:12:57;15.27;;;5.72;;
71715;SDS011;59568;52.128;5.434;2023-03-21T08:15:24;9.20;;;4.70;;
71715;SDS011;59568;52.128;5.434;2023-03-21T08:17:50;13.27;;;4.88;;
71715;SDS011;59568;52.128;5.434;2023-03-21T08:20:18;17.27;;;5.63;;
71715;SDS011;59568;52.128;5.434;2023-03-21T08:22:47;12.20;;;5.15;;
71715;SDS011;59568;52.128;5.434;2023-03-21T08:25:14;10.60;;;5.10;;
71715;SDS011;59568;52.128;5.434;2023-03-21T08:27:43;11.23;;;4.80;;
71715;SDS011;59568;52.128;5.434;2023-03-21T08:30:12;11.10;;;4.93;;
71715;SDS011;59568;52.128;5.434;2023-03-21T08:32:41;14.63;;;5.33;;
71715;SDS011;59568;52.128;5.434;2023-03-21T08:35:08;13.23;;;5.50;;
71715;SDS011;59568;52.128;5.434;2023-03-21T08:37:37;14.60;;;4.82;;
71715;SDS011;59568;52.128;5.434;2023-03-21T08:40:04;12.48;;;5.25;;
71715;SDS011;59568;52.128;5.434;2023-03-21T08:42:36;10.57;;;4.85;;
71715;SDS011;59568;52.128;5.434;2023-03-21T08:45:03;10.63;;;4.23;;
71715;SDS011;59568;52.128;5.434;2023-03-21T08:47:31;11.88;;;4.50;;
71715;SDS011;59568;52.128;5.434;2023-03-21T08:49:58;9.68;;;4.68;;
71715;SDS011;59568;52.128;5.434;2023-03-21T08:52:25;12.60;;;4.47;;
71715;SDS011;59568;52.128;5.434;2023-03-21T08:54:55;11.00;;;4.22;;
71715;SDS011;59568;52.128;5.434;2023-03-21T08:57:21;10.90;;;4.10;;
71715;SDS011;59568;52.128;5.434;2023-03-21T08:59:48;9.70;;;3.90;;
71715;SDS011;59568;52.128;5.434;2023-03-21T09:02:15;8.18;;;3.85;;
71715;SDS011;59568;52.128;5.434;2023-03-21T09:04:42;10.13;;;3.92;;
71715;SDS011;59568;52.128;5.434;2023-03-21T09:07:10;11.05;;;3.97;;
71715;SDS011;59568;52.128;5.434;2023-03-21T09:09:43;10.53;;;3.97;;
71715;SDS011;59568;52.128;5.434;2023-03-21T09:12:12;9.95;;;4.28;;
71715;SDS011;59568;52.128;5.434;2023-03-21T09:14:39;10.18;;;4.13;;
71715;SDS011;59568;52.128;5.434;2023-03-21T09:17:06;8.30;;;4.00;;
71715;SDS011;59568;52.128;5.434;2023-03-21T09:19:33;9.00;;;4.15;;
71715;SDS011;59568;52.128;5.434;2023-03-21T09:22:00;9.30;;;4.33;;
71715;SDS011;59568;52.128;5.434;2023-03-21T09:24:27;9.38;;;3.80;;
71715;SDS011;59568;52.128;5.434;2023-03-21T09:26:54;9.07;;;3.72;;
71715;SDS011;59568;52.128;5.434;2023-03-21T09:29:21;8.48;;;3.40;;
71715;SDS011;59568;52.128;5.434;2023-03-21T09:31:48;6.82;;;2.83;;
71715;SDS011;59568;52.128;5.434;2023-03-21T09:34:15;9.37;;;3.20;;
71715;SDS011;59568;52.128;5.434;2023-03-21T09:36:41;8.73;;;3.72;;
71715;SDS011;59568;52.128;5.434;2023-03-21T09:39:09;11.30;;;3.70;;
71715;SDS011;59568;52.128;5.434;2023-03-21T09:47:17;15.20;;;4.33;;
71715;SDS011;59568;52.128;5.434;2023-03-21T09:49:57;8.20;;;3.92;;
71715;SDS011;59568;52.128;5.434;2023-03-21T09:55:24;9.77;;;4.30;;
71715;SDS011;59568;52.128;5.434;2023-03-21T10:00:54;9.40;;;3.60;;
71715;SDS011;59568;52.128;5.434;2023-03-21T10:04:00;10.77;;;4.50;;
71715;SDS011;59568;52.128;5.434;2023-03-21T10:06:30;9.00;;;3.90;;
71715;SDS011;59568;52.128;5.434;2023-03-21T10:09:01;8.05;;;4.45;;
71715;SDS011;59568;52.128;5.434;2023-03-21T10:11:38;7.72;;;4.32;;
71715;SDS011;59568;52.128;5.434;2023-03-21T10:17:00;8.02;;;4.38;;
71715;SDS011;59568;52.128;5.434;2023-03-21T10:19:34;7.45;;;4.18;;
71715;SDS011;59568;52.128;5.434;2023-03-21T10:22:00;9.30;;;4.20;;
71715;SDS011;59568;52.128;5.434;2023-03-21T10:24:34;8.93;;;4.10;;
71715;SDS011;59568;52.128;5.434;2023-03-21T10:27:02;8.77;;;4.47;;
71715;SDS011;59568;52.128;5.434;2023-03-21T10:29:39;9.00;;;4.38;;
71715;SDS011;59568;52.128;5.434;2023-03-21T10:32:09;8.63;;;4.15;;
71715;SDS011;59568;52.128;5.434;2023-03-21T10:34:40;10.68;;;4.03;;
71715;SDS011;59568;52.128;5.434;2023-03-21T10:37:10;8.38;;;4.00;;
71715;SDS011;59568;52.128;5.434;2023-03-21T10:39:39;10.53;;;4.40;;
71715;SDS011;59568;52.128;5.434;2023-03-21T10:42:16;9.02;;;4.20;;
71715;SDS011;59568;52.128;5.434;2023-03-21T10:44:50;10.55;;;3.80;;
71715;SDS011;59568;52.128;5.434;2023-03-21T10:47:23;8.85;;;4.07;;
71715;SDS011;59568;52.128;5.434;2023-03-21T10:49:52;8.43;;;3.70;;
71715;SDS011;59568;52.128;5.434;2023-03-21T10:52:40;8.80;;;3.67;;
71715;SDS011;59568;52.128;5.434;2023-03-21T10:55:20;6.07;;;3.20;;
71715;SDS011;59568;52.128;5.434;2023-03-21T10:57:52;8.57;;;3.80;;
71715;SDS011;59568;52.128;5.434;2023-03-21T11:00:24;7.70;;;3.90;;
71715;SDS011;59568;52.128;5.434;2023-03-21T11:02:54;8.75;;;3.35;;
71715;SDS011;59568;52.128;5.434;2023-03-21T11:05:24;7.63;;;3.17;;
71715;SDS011;59568;52.128;5.434;2023-03-21T11:08:03;7.90;;;3.25;;
71715;SDS011;59568;52.128;5.434;2023-03-21T11:10:37;8.88;;;3.65;;
71715;SDS011;59568;52.128;5.434;2023-03-21T11:13:18;8.23;;;3.42;;
71715;SDS011;59568;52.128;5.434;2023-03-21T11:18:22;8.63;;;3.70;;
71715;SDS011;59568;52.128;5.434;2023-03-21T11:20:57;7.18;;;3.03;;
71715;SDS011;59568;52.128;5.434;2023-03-21T11:23:29;11.05;;;3.60;;
71715;SDS011;59568;52.128;5.434;2023-03-21T11:25:59;6.07;;;3.10;;
71715;SDS011;59568;52.128;5.434;2023-03-21T11:28:37;8.48;;;3.05;;
71715;SDS011;59568;52.128;5.434;2023-03-21T11:31:05;6.03;;;3.00;;
71715;SDS011;59568;52.128;5.434;2023-03-21T11:33:38;9.07;;;3.75;;
71715;SDS011;59568;52.128;5.434;2023-03-21T11:38:43;10.02;;;3.83;;
71715;SDS011;59568;52.128;5.434;2023-03-21T11:41:21;7.28;;;2.92;;
71715;SDS011;59568;52.128;5.434;2023-03-21T11:43:50;7.30;;;3.07;;
71715;SDS011;59568;52.128;5.434;2023-03-21T11:46:22;6.47;;;3.42;;
71715;SDS011;59568;52.128;5.434;2023-03-21T11:48:53;6.97;;;3.20;;
71715;SDS011;59568;52.128;5.434;2023-03-21T11:51:38;7.07;;;2.92;;
71715;SDS011;59568;52.128;5.434;2023-03-21T11:57:07;5.40;;;3.10;;
71715;SDS011;59568;52.128;5.434;2023-03-21T11:59:47;7.60;;;3.35;;
71715;SDS011;59568;52.128;5.434;2023-03-21T12:02:47;8.10;;;2.95;;
71715;SDS011;59568;52.128;5.434;2023-03-21T12:05:35;9.00;;;3.80;;
71715;SDS011;59568;52.128;5.434;2023-03-21T12:11:16;6.77;;;3.37;;
71715;SDS011;59568;52.128;5.434;2023-03-21T12:16:31;7.57;;;3.45;;
71715;SDS011;59568;52.128;5.434;2023-03-21T12:22:09;6.68;;;3.10;;
71715;SDS011;59568;52.128;5.434;2023-03-21T12:30:25;7.55;;;3.33;;
71715;SDS011;59568;52.128;5.434;2023-03-21T12:33:23;8.93;;;3.47;;
71715;SDS011;59568;52.128;5.434;2023-03-21T12:39:23;9.37;;;3.60;;
71715;SDS011;59568;52.128;5.434;2023-03-21T12:44:40;9.13;;;3.47;;
71715;SDS011;59568;52.128;5.434;2023-03-21T12:47:12;6.57;;;3.53;;
71715;SDS011;59568;52.128;5.434;2023-03-21T12:49:45;6.63;;;3.60;;
71715;SDS011;59568;52.128;5.434;2023-03-21T12:57:31;10.68;;;4.20;;
71715;SDS011;59568;52.128;5.434;2023-03-21T13:02:42;8.07;;;3.92;;
71715;SDS011;59568;52.128;5.434;2023-03-21T13:05:21;10.70;;;4.27;;
71715;SDS011;59568;52.128;5.434;2023-03-21T13:07:57;9.85;;;4.05;;
71715;SDS011;59568;52.128;5.434;2023-03-21T13:10:30;8.95;;;4.00;;
71715;SDS011;59568;52.128;5.434;2023-03-21T13:13:02;7.95;;;4.32;;
71715;SDS011;59568;52.128;5.434;2023-03-21T13:15:43;10.25;;;5.18;;
71715;SDS011;59568;52.128;5.434;2023-03-21T13:27:01;11.18;;;4.68;;
71715;SDS011;59568;52.128;5.434;2023-03-21T13:29:33;11.05;;;4.80;;
71715;SDS011;59568;52.128;5.434;2023-03-21T13:32:19;9.80;;;4.77;;
71715;SDS011;59568;52.128;5.434;2023-03-21T13:34:54;10.73;;;4.43;;
71715;SDS011;59568;52.128;5.434;2023-03-21T13:37:24;10.18;;;4.80;;
71715;SDS011;59568;52.128;5.434;2023-03-21T13:39:58;9.05;;;5.03;;
71715;SDS011;59568;52.128;5.434;2023-03-21T13:42:31;10.98;;;5.43;;
71715;SDS011;59568;52.128;5.434;2023-03-21T13:44:59;9.43;;;5.03;;
71715;SDS011;59568;52.128;5.434;2023-03-21T13:53:19;9.40;;;5.35;;
71715;SDS011;59568;52.128;5.434;2023-03-21T13:55:41;7.47;;;4.82;;
71715;SDS011;59568;52.128;5.434;2023-03-21T14:01:18;10.63;;;4.25;;
71715;SDS011;59568;52.128;5.434;2023-03-21T14:04:37;9.10;;;4.60;;
71715;SDS011;59568;52.128;5.434;2023-03-21T14:06:45;10.50;;;4.72;;
71715;SDS011;59568;52.128;5.434;2023-03-21T14:09:32;7.50;;;4.43;;
71715;SDS011;59568;52.128;5.434;2023-03-21T14:12:24;6.37;;;4.30;;
71715;SDS011;59568;52.128;5.434;2023-03-21T14:14:57;11.02;;;5.07;;
71715;SDS011;59568;52.128;5.434;2023-03-21T14:17:47;8.45;;;4.72;;
71715;SDS011;59568;52.128;5.434;2023-03-21T14:20:54;9.48;;;4.05;;
71715;SDS011;59568;52.128;5.434;2023-03-21T14:23:22;8.02;;;5.10;;
71715;SDS011;59568;52.128;5.434;2023-03-21T14:25:49;7.30;;;4.60;;
71715;SDS011;59568;52.128;5.434;2023-03-21T14:28:18;8.00;;;4.43;;
71715;SDS011;59568;52.128;5.434;2023-03-21T14:30:50;8.18;;;4.72;;
71715;SDS011;59568;52.128;5.434;2023-03-21T14:33:32;8.52;;;5.10;;
71715;SDS011;59568;52.128;5.434;2023-03-21T14:36:08;7.95;;;5.30;;
71715;SDS011;59568;52.128;5.434;2023-03-21T14:38:39;7.20;;;4.60;;
71715;SDS011;59568;52.128;5.434;2023-03-21T14:41:20;10.65;;;4.80;;
71715;SDS011;59568;52.128;5.434;2023-03-21T14:46:52;7.70;;;4.15;;
71715;SDS011;59568;52.128;5.434;2023-03-21T14:49:28;10.60;;;4.88;;
71715;SDS011;59568;52.128;5.434;2023-03-21T14:52:03;7.20;;;4.83;;
71715;SDS011;59568;52.128;5.434;2023-03-21T14:54:35;10.10;;;4.88;;
71715;SDS011;59568;52.128;5.434;2023-03-21T14:57:09;7.53;;;4.57;;
71715;SDS011;59568;52.128;5.434;2023-03-21T14:59:39;7.47;;;4.88;;
71715;SDS011;59568;52.128;5.434;2023-03-21T15:02:14;11.65;;;4.60;;
71715;SDS011;59568;52.128;5.434;2023-03-21T15:04:45;6.50;;;4.33;;
71715;SDS011;59568;52.128;5.434;2023-03-21T15:07:27;8.57;;;4.68;;
71715;SDS011;59568;52.128;5.434;2023-03-21T15:09:56;8.10;;;4.35;;
71715;SDS011;59568;52.128;5.434;2023-03-21T15:12:27;12.90;;;5.40;;
71715;SDS011;59568;52.128;5.434;2023-03-21T15:14:54;10.45;;;5.10;;
71715;SDS011;59568;52.128;5.434;2023-03-21T15:17:23;9.23;;;5.30;;
71715;SDS011;59568;52.128;5.434;2023-03-21T15:19:52;10.00;;;5.47;;
71715;SDS011;59568;52.128;5.434;2023-03-21T15:22:38;8.10;;;5.35;;
71715;SDS011;59568;52.128;5.434;2023-03-21T15:25:10;9.27;;;5.10;;
71715;SDS011;59568;52.128;5.434;2023-03-21T15:27:41;12.50;;;5.38;;
71715;SDS011;59568;52.128;5.434;2023-03-21T15:30:17;8.23;;;4.60;;
71715;SDS011;59568;52.128;5.434;2023-03-21T15:32:47;7.85;;;4.80;;
71715;SDS011;59568;52.128;5.434;2023-03-21T15:35:15;10.98;;;5.57;;
71715;SDS011;59568;52.128;5.434;2023-03-21T15:37:53;10.25;;;4.70;;
71715;SDS011;59568;52.128;5.434;2023-03-21T15:40:26;11.23;;;5.68;;
71715;SDS011;59568;52.128;5.434;2023-03-21T15:43:14;8.97;;;5.07;;
71715;SDS011;59568;52.128;5.434;2023-03-21T15:45:49;8.27;;;4.85;;
71715;SDS011;59568;52.128;5.434;2023-03-21T15:48:20;6.55;;;4.75;;
71715;SDS011;59568;52.128;5.434;2023-03-21T15:50:57;8.48;;;5.05;;
71715;SDS011;59568;52.128;5.434;2023-03-21T15:53:30;9.05;;;5.20;;
71715;SDS011;59568;52.128;5.434;2023-03-21T15:55:59;8.03;;;4.93;;
71715;SDS011;59568;52.128;5.434;2023-03-21T15:58:35;10.48;;;4.85;;
71715;SDS011;59568;52.128;5.434;2023-03-21T16:01:29;8.57;;;4.72;;
71715;SDS011;59568;52.128;5.434;2023-03-21T16:04:01;8.45;;;4.75;;
71715;SDS011;59568;52.128;5.434;2023-03-21T16:06:32;9.45;;;5.07;;
71715;SDS011;59568;52.128;5.434;2023-03-21T16:09:17;7.00;;;4.30;;
71715;SDS011;59568;52.128;5.434;2023-03-21T16:11:50;9.98;;;5.25;;
71715;SDS011;59568;52.128;5.434;2023-03-21T16:14:20;8.60;;;4.97;;
71715;SDS011;59568;52.128;5.434;2023-03-21T16:16:47;10.48;;;5.35;;
71715;SDS011;59568;52.128;5.434;2023-03-21T16:19:14;8.95;;;5.30;;
71715;SDS011;59568;52.128;5.434;2023-03-21T16:21:41;11.57;;;5.47;;
71715;SDS011;59568;52.128;5.434;2023-03-21T16:24:08;10.60;;;5.25;;
71715;SDS011;59568;52.128;5.434;2023-03-21T16:26:38;11.20;;;5.55;;
71715;SDS011;59568;52.128;5.434;2023-03-21T16:29:13;9.85;;;5.45;;
71715;SDS011;59568;52.128;5.434;2023-03-21T16:31:40;11.52;;;5.93;;
71715;SDS011;59568;52.128;5.434;2023-03-21T16:34:07;7.57;;;5.40;;
71715;SDS011;59568;52.128;5.434;2023-03-21T16:36:35;9.95;;;5.80;;
71715;SDS011;59568;52.128;5.434;2023-03-21T16:39:09;9.38;;;5.32;;
71715;SDS011;59568;52.128;5.434;2023-03-21T16:41:47;11.00;;;5.47;;